Portada
METAR-TAF:

METAR-TAF

Aeroports :

Georgetown, Illa de l'Ascensió

latitud: 07-58S, longitud: 014-24W, altitud: 86 m

Observació

L'informe es va fer fa 8 hores i 4 minuts, a les 12:50 UTC
Vent 13 kt del Sud/Sud-Est
Temperatura 27°C
Humitat 54%
Pressió 1016 hPa
Visibilitat 10 km o més
Escasses núvols a una alçada de 3000 ft

METAR: FHAW 011250Z 15013KT 9999 FEW030 27/17 Q1016 NOSIG RMK BLU BLU

Hora: 20:54 (20:54 UTC)

Pronòstic

L'informe es va fer fa 10 hores i 24 minuts, a les 10:30 UTC
Pronòstic vàlid del 01 a les 12 UTC al 02 a les 06 UTC
Vent 14 kt del Sud/Sud-Est
Visibilitat 10 km o més
Escasses núvols a una alçada de 2500 ft
Cel ennuvolat a una alçada de 4000 ft

TAF: FHAW 011030Z 0112/0206 15014KT 9999 FEW025 BKN040

Observacions i pronòstics meteorològics de més de 4000 aeroports (METAR i TAF).

Les estacions disponibles són els punts grocs i vermells al mapa.

Posi el ratolí al punt desitjat per veure el nom de l'estació.

Feu clic per veure les observacions i els pronòstics meteorològics.

Per canviar el mapa: feu clic els botons verds amb una creu de color negre per apropar; al botó verd amb un guió per allunyar la imatge; o en les fletxes verdes per a mapes adjacents.


METAR-TAF: